createdAt,value
2018-09-06T00:00:08.845Z,68.43
2018-09-06T00:02:36.889Z,68.90
2018-09-06T00:05:04.959Z,64.97
2018-09-06T00:07:33.043Z,69.57
2018-09-06T00:10:01.106Z,62.53
2018-09-06T00:12:29.190Z,62.80
2018-09-06T00:14:57.247Z,58.00
2018-09-06T00:17:25.313Z,49.27
2018-09-06T00:19:53.354Z,52.00
2018-09-06T00:22:21.363Z,59.97
2018-09-06T00:24:49.408Z,61.20
2018-09-06T00:27:17.498Z,66.83
2018-09-06T00:29:45.552Z,62.90
2018-09-06T00:32:13.677Z,62.13
2018-09-06T00:34:41.809Z,74.10
2018-09-06T00:37:09.867Z,69.30
2018-09-06T00:39:37.923Z,75.57
2018-09-06T00:42:05.976Z,76.17
2018-09-06T00:44:34.303Z,79.37
2018-09-06T00:47:02.864Z,82.57
2018-09-06T00:49:31.162Z,82.43
2018-09-06T00:51:59.453Z,86.03
2018-09-06T00:54:27.791Z,92.27
2018-09-06T00:56:56.088Z,84.87
2018-09-06T00:59:24.947Z,92.07
2018-09-06T01:01:53.883Z,91.23
2018-09-06T01:04:21.927Z,96.13
2018-09-06T01:06:49.962Z,97.57
2018-09-06T01:09:18.084Z,90.70
2018-09-06T01:11:46.180Z,94.80
2018-09-06T01:14:14.230Z,91.53
2018-09-06T01:16:42.286Z,91.40
2018-09-06T01:19:10.446Z,103.20
2018-09-06T01:21:38.511Z,102.63
2018-09-06T01:24:06.681Z,93.00
2018-09-06T01:26:34.738Z,96.40
2018-09-06T01:29:02.979Z,93.47
2018-09-06T01:31:31.126Z,93.13
2018-09-06T01:33:59.275Z,94.20
2018-09-06T01:36:32.863Z,99.23
2018-09-06T01:39:00.882Z,95.90
2018-09-06T01:41:28.903Z,93.40
2018-09-06T01:43:56.963Z,90.43
2018-09-06T01:46:25.026Z,90.73
2018-09-06T01:48:53.080Z,90.53
2018-09-06T01:51:21.109Z,85.90
2018-09-06T01:53:49.130Z,96.77
2018-09-06T01:56:17.214Z,85.53
2018-09-06T01:58:45.242Z,80.53
2018-09-06T02:01:13.389Z,75.37
2018-09-06T02:03:41.431Z,76.10
2018-09-06T02:06:09.537Z,71.37
2018-09-06T02:08:37.572Z,70.80
2018-09-06T02:11:05.626Z,64.33
2018-09-06T02:13:33.654Z,60.90
2018-09-06T02:16:01.694Z,58.63
2018-09-06T02:18:30.251Z,58.07
2018-09-06T02:20:58.263Z,62.97
2018-09-06T02:23:26.311Z,62.60
2018-09-06T02:25:54.345Z,53.63
2018-09-06T02:28:22.369Z,54.77
2018-09-06T02:30:50.518Z,59.43
2018-09-06T02:33:18.779Z,61.67
2018-09-06T02:35:46.867Z,55.57
2018-09-06T02:38:15.143Z,62.33
2018-09-06T02:40:43.210Z,67.03
2018-09-06T02:43:12.490Z,67.53
2018-09-06T02:45:41.560Z,67.73
2018-09-06T02:48:09.654Z,66.97
2018-09-06T02:50:43.238Z,65.63
2018-09-06T02:53:11.438Z,63.50
2018-09-06T02:55:39.644Z,64.07
2018-09-06T02:58:07.715Z,68.83
2018-09-06T03:00:36.725Z,66.93
2018-09-06T03:03:04.760Z,75.87
2018-09-06T03:05:32.799Z,66.23
2018-09-06T03:08:01.407Z,74.87
2018-09-06T03:10:33.428Z,74.17
2018-09-06T03:13:01.480Z,65.30
2018-09-06T03:15:29.552Z,66.80
2018-09-06T03:17:57.698Z,59.83
2018-09-06T03:20:25.758Z,70.90
2018-09-06T03:22:53.791Z,61.23
2018-09-06T03:25:21.820Z,67.83
2018-09-06T03:27:49.844Z,68.97
2018-09-06T03:30:17.886Z,67.60
2018-09-06T03:32:46.031Z,68.37
2018-09-06T03:35:14.075Z,63.10
2018-09-06T03:37:42.113Z,65.43
2018-09-06T03:40:10.155Z,62.90
2018-09-06T03:42:38.174Z,67.40
2018-09-06T03:45:06.274Z,61.10
2018-09-06T03:47:34.335Z,66.30
2018-09-06T03:50:02.355Z,60.20
2018-09-06T03:52:30.499Z,59.77
2018-09-06T03:54:58.587Z,60.90
2018-09-06T03:57:26.627Z,54.87
2018-09-06T03:59:54.699Z,53.37
2018-09-06T04:02:22.720Z,48.63
2018-09-06T04:04:50.936Z,55.97
2018-09-06T04:07:18.963Z,45.57
2018-09-06T04:09:46.985Z,46.10
2018-09-06T04:12:15.023Z,42.23
2018-09-06T04:14:43.053Z,38.30
2018-09-06T04:17:11.087Z,38.57
2018-09-06T04:19:39.136Z,40.23
2018-09-06T04:22:07.223Z,27.40
2018-09-06T04:24:35.238Z,23.67
2018-09-06T04:27:03.284Z,26.57
2018-09-06T04:29:31.305Z,27.27
2018-09-06T04:31:59.323Z,24.90
2018-09-06T04:34:27.461Z,21.93
2018-09-06T04:36:55.536Z,22.33
2018-09-06T04:39:23.613Z,24.07
2018-09-06T04:41:51.661Z,25.50
2018-09-06T04:44:19.714Z,24.17
2018-09-06T04:46:48.610Z,25.00
2018-09-06T04:49:16.948Z,24.80
2018-09-06T04:51:45.136Z,20.57
2018-09-06T04:54:13.154Z,22.83
2018-09-06T04:56:41.278Z,23.23
2018-09-06T04:59:09.386Z,20.87
2018-09-06T05:01:37.463Z,24.13
2018-09-06T05:04:05.780Z,23.57
2018-09-06T05:06:33.844Z,28.53
2018-09-06T05:09:02.014Z,25.77
2018-09-06T05:11:30.163Z,24.83
2018-09-06T05:13:58.216Z,27.43
2018-09-06T05:16:26.279Z,27.87
2018-09-06T05:18:54.379Z,26.90
2018-09-06T05:21:22.458Z,28.93
2018-09-06T05:23:50.514Z,26.13
2018-09-06T05:26:18.548Z,30.73
2018-09-06T05:28:46.597Z,35.27
2018-09-06T05:31:14.799Z,30.03
2018-09-06T05:33:42.831Z,29.73
2018-09-06T05:36:11.109Z,29.87
2018-09-06T05:38:39.070Z,30.63
2018-09-06T05:41:07.247Z,29.87
2018-09-06T05:43:35.316Z,31.37
2018-09-06T05:46:03.371Z,36.27
2018-09-06T05:48:31.452Z,35.30
2018-09-06T05:50:59.504Z,25.73
2018-09-06T05:53:27.572Z,27.70
2018-09-06T05:55:55.667Z,29.27
2018-09-06T05:58:23.755Z,24.30
2018-09-06T06:00:51.779Z,27.10
2018-09-06T06:03:19.857Z,27.50
2018-09-06T06:05:47.937Z,26.47
2018-09-06T06:08:21.552Z,28.17
2018-09-06T06:10:49.583Z,27.10
2018-09-06T06:13:17.608Z,23.90
2018-09-06T06:15:45.690Z,24.60
2018-09-06T06:18:13.732Z,23.93
2018-09-06T06:20:41.763Z,28.70
2018-09-06T06:23:09.804Z,24.63
2018-09-06T06:25:37.830Z,20.50
2018-09-06T06:28:05.851Z,20.40
2018-09-06T06:30:33.899Z,21.23
2018-09-06T06:33:01.915Z,20.07
2018-09-06T06:35:30.056Z,21.00
2018-09-06T06:37:58.114Z,19.13
2018-09-06T06:40:26.141Z,16.10
2018-09-06T06:42:54.162Z,20.07
2018-09-06T06:45:22.238Z,19.27
2018-09-06T06:47:50.307Z,18.97
2018-09-06T06:50:18.405Z,17.73
2018-09-06T06:52:46.443Z,19.20
2018-09-06T06:55:14.476Z,15.77
2018-09-06T06:57:42.513Z,17.77
2018-09-06T07:00:10.579Z,15.00
2018-09-06T07:02:38.615Z,14.60
2018-09-06T07:05:06.647Z,15.93
2018-09-06T07:07:34.790Z,17.10
2018-09-06T07:10:02.915Z,18.20
2018-09-06T07:12:31.135Z,19.13
2018-09-06T07:14:59.213Z,15.47
2018-09-06T07:17:27.247Z,18.10
2018-09-06T07:19:55.555Z,14.00
2018-09-06T07:22:23.585Z,15.27
2018-09-06T07:24:51.682Z,19.07
2018-09-06T07:27:19.710Z,15.30
2018-09-06T07:29:47.743Z,13.93
2018-09-06T07:32:15.819Z,14.20
2018-09-06T07:34:43.839Z,15.10
2018-09-06T07:37:11.867Z,15.50
2018-09-06T07:39:39.926Z,15.53
2018-09-06T07:42:07.954Z,12.67
2018-09-06T07:44:35.971Z,15.07
2018-09-06T07:47:04.062Z,13.67
2018-09-06T07:49:32.103Z,14.23
2018-09-06T07:52:00.185Z,11.67
2018-09-06T07:54:28.215Z,13.53
2018-09-06T07:56:56.319Z,11.77
2018-09-06T07:59:24.419Z,15.53
2018-09-06T08:01:52.475Z,10.83
2018-09-06T08:04:20.491Z,10.60
2018-09-06T08:06:48.539Z,10.20
2018-09-06T08:09:16.561Z,9.90
2018-09-06T08:11:44.639Z,10.10
2018-09-06T08:14:12.732Z,11.00
2018-09-06T08:16:40.780Z,11.07
2018-09-06T08:19:08.810Z,10.27
2018-09-06T08:21:36.971Z,9.17
2018-09-06T08:24:05.007Z,8.93
2018-09-06T08:26:33.122Z,13.50
2018-09-06T08:29:01.184Z,10.43
2018-09-06T08:31:29.264Z,9.23
2018-09-06T08:33:57.323Z,9.07
2018-09-06T08:36:25.418Z,9.17
2018-09-06T08:38:53.443Z,9.60
2018-09-06T08:41:21.463Z,8.60
2018-09-06T08:43:49.523Z,10.53
2018-09-06T08:46:17.541Z,8.50
2018-09-06T08:48:45.606Z,8.37
2018-09-06T08:51:13.648Z,9.40
2018-09-06T08:53:41.710Z,8.57
2018-09-06T08:56:09.768Z,8.93
2018-09-06T08:58:37.866Z,8.50
2018-09-06T09:01:11.442Z,9.43
2018-09-06T09:03:39.475Z,10.70
2018-09-06T09:06:07.492Z,9.20
2018-09-06T09:08:35.558Z,12.17
2018-09-06T09:11:03.620Z,9.47
2018-09-06T09:13:31.666Z,9.13
2018-09-06T09:15:59.748Z,14.10
2018-09-06T09:18:27.823Z,9.97
2018-09-06T09:20:55.883Z,11.67
2018-09-06T09:23:24.197Z,9.27
2018-09-06T09:25:52.243Z,9.67
2018-09-06T09:28:20.302Z,11.53
2018-09-06T09:30:48.380Z,8.37
2018-09-06T09:33:16.439Z,8.77
2018-09-06T09:35:44.471Z,12.13
2018-09-06T09:38:12.502Z,9.13
2018-09-06T09:40:40.536Z,7.37
2018-09-06T09:43:08.911Z,8.00
2018-09-06T09:45:38.171Z,9.33
2018-09-06T09:48:06.203Z,10.63
2018-09-06T09:53:01.649Z,7.40
2018-09-06T09:55:29.680Z,8.80
2018-09-06T09:57:57.797Z,8.80
2018-09-06T10:00:31.285Z,11.00
2018-09-06T10:03:04.906Z,8.17
2018-09-06T10:05:38.631Z,9.53
2018-09-06T10:08:12.423Z,9.07
2018-09-06T10:10:40.699Z,10.73
2018-09-06T10:13:09.039Z,8.93
2018-09-06T10:15:37.071Z,7.80
2018-09-06T10:18:05.322Z,9.87
2018-09-06T10:20:33.308Z,9.67
2018-09-06T10:23:01.337Z,8.37
2018-09-06T10:25:29.450Z,8.03
2018-09-06T10:27:57.515Z,6.73
2018-09-06T10:30:25.544Z,5.97
2018-09-06T10:32:53.593Z,6.60
2018-09-06T10:35:21.716Z,7.60
2018-09-06T10:37:49.879Z,10.17
2018-09-06T10:40:17.916Z,7.37
2018-09-06T10:42:45.942Z,8.40
2018-09-06T10:45:14.039Z,6.30
2018-09-06T10:47:42.107Z,6.83
2018-09-06T10:50:10.127Z,7.07
2018-09-06T10:52:38.194Z,6.00
2018-09-06T10:55:06.255Z,5.67
2018-09-06T10:57:34.357Z,5.20
2018-09-06T11:00:02.421Z,6.03
2018-09-06T11:02:30.622Z,6.60
2018-09-06T11:04:58.672Z,5.60
2018-09-06T11:07:26.832Z,6.67
2018-09-06T11:09:54.859Z,6.27
2018-09-06T11:12:22.900Z,7.10
2018-09-06T11:14:51.206Z,6.43
2018-09-06T11:17:19.227Z,7.00
2018-09-06T11:19:47.294Z,7.67
2018-09-06T11:22:15.573Z,6.07
2018-09-06T11:24:43.461Z,5.77
2018-09-06T11:27:11.618Z,5.77
2018-09-06T11:29:39.682Z,6.33
2018-09-06T11:32:07.714Z,6.37
2018-09-06T11:34:35.800Z,6.07
2018-09-06T11:37:04.047Z,7.67
2018-09-06T11:39:32.105Z,7.13
2018-09-06T11:42:00.183Z,7.60
2018-09-06T11:44:28.271Z,5.73
2018-09-06T11:46:56.571Z,6.43
2018-09-06T11:49:24.363Z,7.53
2018-09-06T11:51:52.486Z,8.37
2018-09-06T11:54:20.514Z,9.53
2018-09-06T11:56:48.678Z,6.97
2018-09-06T11:59:16.710Z,6.93
2018-09-06T12:01:44.855Z,7.97
2018-09-06T12:04:13.025Z,7.43
2018-09-06T12:06:41.975Z,7.10
2018-09-06T12:09:09.998Z,8.63
2018-09-06T12:11:38.027Z,8.53
2018-09-06T12:14:06.303Z,7.93
2018-09-06T12:16:34.383Z,7.93
2018-09-06T12:19:02.471Z,9.27
2018-09-06T12:21:30.737Z,10.40
2018-09-06T12:23:59.636Z,9.57
2018-09-06T12:26:27.659Z,11.30
2018-09-06T12:28:55.698Z,10.97
2018-09-06T12:31:23.825Z,15.40
2018-09-06T12:33:51.864Z,9.17
2018-09-06T12:36:19.998Z,17.43
2018-09-06T12:38:48.103Z,14.10
2018-09-06T12:41:16.225Z,11.47
2018-09-06T12:43:44.626Z,15.63
2018-09-06T12:46:12.684Z,17.40
2018-09-06T12:48:41.047Z,15.27
2018-09-06T12:51:09.361Z,17.50
2018-09-06T12:53:37.414Z,13.77
2018-09-06T12:56:05.471Z,21.50
2018-09-06T12:58:33.759Z,13.23
2018-09-06T13:01:02.073Z,14.60
2018-09-06T13:03:30.396Z,19.77
2018-09-06T13:05:58.710Z,12.30
2018-09-06T13:08:27.028Z,10.00
2018-09-06T13:10:55.329Z,8.73
2018-09-06T13:13:23.678Z,7.73
2018-09-06T13:15:51.951Z,9.40
2018-09-06T13:18:20.302Z,15.17
2018-09-06T13:20:48.579Z,10.00
2018-09-06T13:23:16.884Z,13.73
2018-09-06T13:25:45.193Z,15.47
2018-09-06T13:28:13.532Z,17.53
2018-09-06T13:30:41.972Z,13.50
2018-09-06T13:33:10.287Z,14.60
2018-09-06T13:35:38.659Z,10.43
2018-09-06T13:38:06.932Z,13.63
2018-09-06T13:40:35.222Z,15.63
2018-09-06T13:43:03.536Z,12.77
2018-09-06T13:45:31.828Z,16.13
2018-09-06T13:48:00.119Z,13.43
2018-09-06T13:50:28.426Z,9.63
2018-09-06T13:52:56.759Z,10.67
2018-09-06T13:55:25.064Z,14.60
2018-09-06T13:57:53.364Z,16.07
2018-09-06T14:00:21.668Z,10.47
2018-09-06T14:02:49.974Z,13.57
2018-09-06T14:05:18.271Z,7.33
2018-09-06T14:07:46.615Z,7.90
2018-09-06T14:10:14.945Z,12.03
2018-09-06T14:12:43.267Z,9.57
2018-09-06T14:15:11.571Z,9.43
2018-09-06T14:17:39.913Z,11.23
2018-09-06T14:20:08.228Z,7.13
2018-09-06T14:22:36.534Z,7.70
2018-09-06T14:25:04.843Z,9.73
2018-09-06T14:27:33.175Z,8.60
2018-09-06T14:30:01.577Z,10.13
2018-09-06T14:32:30.076Z,9.60
2018-09-06T14:34:58.831Z,10.00
2018-09-06T14:37:27.190Z,7.23
2018-09-06T14:39:55.538Z,7.40
2018-09-06T14:42:23.873Z,10.57
2018-09-06T14:44:52.187Z,8.27
2018-09-06T14:47:20.493Z,9.87
2018-09-06T14:49:48.803Z,10.23
2018-09-06T14:52:17.120Z,7.87
2018-09-06T14:54:45.588Z,6.53
2018-09-06T14:57:13.900Z,9.17
2018-09-06T14:59:42.223Z,10.97
2018-09-06T15:02:10.605Z,6.93
2018-09-06T15:04:38.922Z,7.87
2018-09-06T15:07:07.231Z,8.70
2018-09-06T15:09:35.560Z,6.60
2018-09-06T15:12:03.887Z,9.83
2018-09-06T15:14:32.191Z,6.87
2018-09-06T15:17:00.799Z,7.07
2018-09-06T15:19:29.119Z,9.73
2018-09-06T15:21:57.444Z,11.27
2018-09-06T15:24:25.767Z,7.67
2018-09-06T15:26:54.178Z,11.27
2018-09-06T15:29:22.499Z,11.73
2018-09-06T15:31:50.831Z,10.10
2018-09-06T15:34:19.190Z,7.77
2018-09-06T15:36:47.543Z,8.10
2018-09-06T15:39:15.871Z,7.33
2018-09-06T15:41:44.200Z,8.77
2018-09-06T15:44:12.511Z,5.63
2018-09-06T15:46:40.916Z,7.07
2018-09-06T15:49:09.260Z,7.67
2018-09-06T15:51:37.576Z,8.27
2018-09-06T15:54:06.120Z,7.60
2018-09-06T15:56:34.447Z,6.40
2018-09-06T15:59:02.791Z,6.90
2018-09-06T16:01:31.127Z,5.97
2018-09-06T16:03:59.465Z,6.83
2018-09-06T16:06:27.996Z,7.57
2018-09-06T16:08:56.319Z,5.90
2018-09-06T16:11:24.663Z,6.30
2018-09-06T16:13:52.699Z,5.57
2018-09-06T16:16:20.843Z,7.00
2018-09-06T16:18:48.926Z,6.77
2018-09-06T16:21:16.999Z,6.50
2018-09-06T16:23:45.068Z,4.77
2018-09-06T16:26:13.126Z,8.47
2018-09-06T16:28:41.259Z,7.17
2018-09-06T16:31:09.403Z,6.27
2018-09-06T16:33:37.459Z,6.40
2018-09-06T16:36:05.727Z,8.17
2018-09-06T16:38:33.794Z,5.33
2018-09-06T16:41:01.904Z,5.80
2018-09-06T16:43:29.978Z,6.63
2018-09-06T16:45:58.314Z,8.27
2018-09-06T16:48:26.396Z,9.17
2018-09-06T16:50:54.479Z,6.17
2018-09-06T16:53:22.548Z,6.67
2018-09-06T16:55:50.589Z,7.37
2018-09-06T16:58:18.625Z,7.80
2018-09-06T17:00:46.674Z,9.10
2018-09-06T17:03:14.729Z,3.90
2018-09-06T17:05:42.821Z,7.03
2018-09-06T17:08:10.889Z,7.77
2018-09-06T17:10:39.036Z,10.37
2018-09-06T17:13:07.095Z,8.90
2018-09-06T17:15:35.136Z,7.93
2018-09-06T17:18:03.183Z,8.43
2018-09-06T17:20:31.228Z,8.47
2018-09-06T17:22:59.316Z,7.03
2018-09-06T17:25:27.926Z,6.87
2018-09-06T17:27:56.048Z,5.80
2018-09-06T17:30:24.139Z,5.83
2018-09-06T17:32:52.420Z,5.33
2018-09-06T17:35:20.393Z,6.53
2018-09-06T17:37:48.452Z,7.63
2018-09-06T17:40:16.500Z,6.23
2018-09-06T17:42:44.644Z,5.43
2018-09-06T17:45:12.671Z,7.93
2018-09-06T17:47:40.755Z,5.47
2018-09-06T17:50:08.795Z,7.03
2018-09-06T17:52:37.075Z,5.60
2018-09-06T17:55:05.192Z,5.80
2018-09-06T17:57:34.008Z,7.13
2018-09-06T18:00:02.353Z,4.60
2018-09-06T18:02:30.773Z,5.03
2018-09-06T18:04:59.232Z,7.03
2018-09-06T18:07:27.606Z,5.43
2018-09-06T18:09:55.935Z,3.90
2018-09-06T18:12:24.301Z,8.13
2018-09-06T18:14:52.622Z,5.83
2018-09-06T18:17:21.021Z,6.70
2018-09-06T18:19:49.295Z,5.27
2018-09-06T18:22:17.583Z,7.33
2018-09-06T18:24:46.095Z,7.00
2018-09-06T18:27:14.401Z,3.93
2018-09-06T18:29:42.783Z,6.60
2018-09-06T18:32:12.039Z,7.67
2018-09-06T18:34:40.370Z,5.97
2018-09-06T18:37:08.665Z,6.73
2018-09-06T18:39:37.004Z,5.77
2018-09-06T18:42:05.282Z,5.23
2018-09-06T18:44:33.602Z,7.87
2018-09-06T18:47:01.923Z,6.63
2018-09-06T18:49:30.234Z,7.07
2018-09-06T18:51:58.580Z,6.73
2018-09-06T18:54:26.881Z,6.87
2018-09-06T18:56:55.172Z,4.40
2018-09-06T18:59:23.697Z,4.60
2018-09-06T19:01:51.988Z,6.60
2018-09-06T19:04:20.291Z,6.97
2018-09-06T19:06:48.615Z,6.43
2018-09-06T19:09:17.022Z,8.83
2018-09-06T19:11:45.303Z,9.67
2018-09-06T19:14:13.658Z,9.17
2018-09-06T19:16:41.976Z,5.30
2018-09-06T19:19:10.307Z,6.90
2018-09-06T19:21:38.636Z,5.70
2018-09-06T19:24:06.987Z,6.33
2018-09-06T19:26:35.427Z,7.37
2018-09-06T19:29:03.736Z,6.10
2018-09-06T19:31:32.089Z,7.93
2018-09-06T19:34:00.436Z,8.03
2018-09-06T19:36:28.770Z,7.43
2018-09-06T19:38:57.129Z,7.43
2018-09-06T19:41:25.444Z,9.23
2018-09-06T19:43:53.781Z,6.33
2018-09-06T19:46:22.203Z,5.90
2018-09-06T19:48:51.032Z,9.20
2018-09-06T19:51:19.319Z,8.77
2018-09-06T19:53:47.632Z,8.33
2018-09-06T19:56:15.940Z,7.63
2018-09-06T19:58:44.277Z,9.87
2018-09-06T20:01:12.643Z,7.43
2018-09-06T20:03:40.939Z,5.60
2018-09-06T20:06:08.962Z,7.13
2018-09-06T20:08:37.009Z,7.63
2018-09-06T20:11:05.076Z,6.63
2018-09-06T20:13:33.154Z,8.07
2018-09-06T20:16:01.187Z,8.00
2018-09-06T20:18:29.228Z,8.33
2018-09-06T20:20:57.249Z,8.67
2018-09-06T20:23:25.271Z,6.90
2018-09-06T20:25:53.323Z,6.80
2018-09-06T20:28:21.500Z,10.73
2018-09-06T20:30:49.432Z,9.10
2018-09-06T20:33:17.505Z,7.53
2018-09-06T20:35:45.529Z,7.77
2018-09-06T20:38:13.761Z,11.40
2018-09-06T20:40:41.827Z,7.00
2018-09-06T20:43:09.927Z,7.70
2018-09-06T20:45:37.976Z,6.80
2018-09-06T20:48:06.031Z,7.53
2018-09-06T20:50:34.187Z,10.90
2018-09-06T20:53:02.263Z,9.77
2018-09-06T20:55:30.337Z,10.13
2018-09-06T20:57:58.927Z,9.50
2018-09-06T21:00:27.102Z,9.03
2018-09-06T21:02:55.194Z,7.87
2018-09-06T21:05:23.275Z,12.30
2018-09-06T21:07:51.301Z,9.90
2018-09-06T21:10:19.344Z,8.60
2018-09-06T21:12:47.383Z,10.33
2018-09-06T21:15:15.431Z,8.87
2018-09-06T21:17:43.511Z,8.93
2018-09-06T21:20:11.592Z,11.67
2018-09-06T21:22:39.654Z,12.17
2018-09-06T21:25:08.274Z,10.27
2018-09-06T21:27:36.399Z,8.87
2018-09-06T21:30:04.476Z,13.40
2018-09-06T21:32:32.486Z,9.33
2018-09-06T21:35:00.686Z,9.20
2018-09-06T21:37:28.936Z,13.13
2018-09-06T21:39:57.023Z,12.57
2018-09-06T21:42:25.155Z,11.50
2018-09-06T21:44:53.223Z,10.53
2018-09-06T21:47:21.399Z,12.90
2018-09-06T21:49:49.459Z,11.80
2018-09-06T21:52:17.492Z,13.20
2018-09-06T21:54:45.576Z,13.10
2018-09-06T21:57:13.682Z,13.17
2018-09-06T21:59:41.742Z,13.83
2018-09-06T22:02:14.110Z,16.13
2018-09-06T22:04:42.244Z,18.30
2018-09-06T22:07:10.271Z,14.13
2018-09-06T22:09:38.299Z,16.37
2018-09-06T22:12:10.644Z,16.13
2018-09-06T22:14:38.687Z,14.27
2018-09-06T22:17:06.759Z,12.90
2018-09-06T22:19:34.831Z,13.63
2018-09-06T22:22:02.899Z,13.73
2018-09-06T22:24:30.962Z,14.63
2018-09-06T22:26:59.015Z,14.23
2018-09-06T22:29:27.039Z,15.43
2018-09-06T22:31:55.193Z,12.40
2018-09-06T22:34:23.228Z,15.00
2018-09-06T22:36:51.331Z,12.57
2018-09-06T22:39:19.524Z,14.20
2018-09-06T22:41:47.575Z,16.63
2018-09-06T22:44:15.652Z,14.67
2018-09-06T22:46:43.771Z,13.30
2018-09-06T22:49:11.802Z,15.47
2018-09-06T22:51:39.890Z,11.93
2018-09-06T22:54:07.926Z,11.30
2018-09-06T22:56:36.015Z,10.73
2018-09-06T22:59:04.314Z,11.00
2018-09-06T23:01:32.353Z,14.87
2018-09-06T23:04:00.375Z,12.67
2018-09-06T23:06:28.522Z,11.73
2018-09-06T23:08:56.574Z,13.07
2018-09-06T23:11:24.626Z,11.80
2018-09-06T23:13:52.710Z,12.07
2018-09-06T23:16:20.755Z,12.60
2018-09-06T23:18:48.910Z,13.87
2018-09-06T23:21:17.007Z,12.40
2018-09-06T23:23:45.088Z,10.60
2018-09-06T23:26:13.166Z,12.07
2018-09-06T23:28:41.251Z,11.57
2018-09-06T23:31:09.287Z,14.93
2018-09-06T23:33:37.455Z,12.13
2018-09-06T23:36:05.574Z,12.57
2018-09-06T23:38:33.744Z,12.90
2018-09-06T23:41:01.806Z,13.23
2018-09-06T23:43:29.875Z,14.27
2018-09-06T23:45:58.864Z,12.90
2018-09-06T23:48:28.063Z,12.43
2018-09-06T23:50:56.868Z,11.73
2018-09-06T23:53:25.748Z,11.40
2018-09-06T23:55:54.232Z,12.53
2018-09-06T23:58:22.302Z,15.27
